Time;durP1;ratioP1;P1;durP2;ratioP2;P2;SDS_P1;SDS_P2;PMS_P1;PMS_P2;Temp;Humidity;BMP_temperature;BMP_pressure;BME280_temperature;BME280_humidity;BME280_pressure;Samples;Min_cycle;Max_cycle;Signal;HPM_P1;HPM_P2
2023/05/26 00:00:07;;;;;;;11.70;3.15;;;14.70;70.20;;;;;;5114783;28;20082;-91
2023/05/26 00:02:36;;;;;;;17.85;3.08;;;14.70;70.30;;;;;;5100045;28;20020;-91
2023/05/26 00:05:03;;;;;;;11.90;3.20;;;14.70;70.40;;;;;;5100701;28;20020;-88
2023/05/26 00:07:29;;;;;;;16.80;3.55;;;14.70;70.70;;;;;;5100146;28;20107;-88
2023/05/26 00:09:55;;;;;;;13.80;3.30;;;14.70;70.80;;;;;;5083114;28;20051;-91
2023/05/26 00:12:22;;;;;;;10.93;2.55;;;14.70;70.80;;;;;;5100489;28;20389;-91
2023/05/26 00:14:48;;;;;;;13.45;3.03;;;14.60;70.80;;;;;;5100244;28;20031;-91
2023/05/26 00:17:16;;;;;;;12.23;2.65;;;14.60;71.00;;;;;;5083821;28;20118;-90
2023/05/26 00:19:44;;;;;;;12.77;2.63;;;14.60;71.00;;;;;;5101136;28;20023;-90
2023/05/26 00:22:12;;;;;;;10.35;3.25;;;14.60;71.10;;;;;;5083972;28;20107;-90
2023/05/26 00:24:38;;;;;;;16.45;2.83;;;14.50;71.10;;;;;;5084676;28;20060;-90
2023/05/26 00:27:04;;;;;;;15.80;2.80;;;14.50;71.40;;;;;;5117308;28;20080;-90
2023/05/26 00:29:30;;;;;;;13.95;2.92;;;14.50;71.40;;;;;;5083604;28;20036;-90
2023/05/26 00:31:56;;;;;;;12.77;2.95;;;14.40;71.50;;;;;;5099768;28;20016;-90
2023/05/26 00:34:22;;;;;;;12.65;2.70;;;14.40;71.50;;;;;;5100484;28;20027;-91
2023/05/26 00:36:47;;;;;;;11.05;2.90;;;14.40;71.70;;;;;;5100990;28;20502;-91
2023/05/26 00:39:13;;;;;;;14.35;3.67;;;14.40;71.70;;;;;;5083454;28;20024;-90
2023/05/26 00:41:39;;;;;;;15.60;2.55;;;14.40;71.60;;;;;;5082752;28;20119;-92
2023/05/26 00:44:05;;;;;;;13.98;3.00;;;14.40;71.70;;;;;;5083295;28;20496;-91
2023/05/26 00:46:31;;;;;;;13.85;3.03;;;14.40;71.80;;;;;;5116514;28;20070;-91
2023/05/26 00:48:56;;;;;;;11.95;3.08;;;14.30;71.70;;;;;;5099126;28;20045;-90
2023/05/26 00:51:22;;;;;;;10.95;2.67;;;14.30;71.60;;;;;;5083591;28;20038;-91
2023/05/26 00:53:49;;;;;;;12.40;2.72;;;14.30;71.80;;;;;;5117436;28;20111;-92
2023/05/26 00:56:18;;;;;;;12.63;3.20;;;14.20;72.00;;;;;;5099990;28;20151;-91
2023/05/26 00:58:44;;;;;;;16.30;3.67;;;14.20;72.10;;;;;;5116701;28;20062;-90
2023/05/26 01:01:10;;;;;;;14.55;3.00;;;14.20;72.10;;;;;;5083048;28;20412;-90
2023/05/26 01:03:39;;;;;;;8.75;2.78;;;14.20;72.20;;;;;;5116588;28;20432;-91
2023/05/26 01:06:05;;;;;;;11.52;2.70;;;14.20;72.30;;;;;;5100603;28;20056;-91
2023/05/26 01:08:32;;;;;;;15.88;2.72;;;14.10;72.20;;;;;;5082718;28;20043;-87
2023/05/26 01:11:06;;;;;;;10.68;2.55;;;14.10;72.40;;;;;;5100399;28;20030;-91
2023/05/26 01:13:44;;;;;;;12.80;3.53;;;14.00;72.50;;;;;;5116660;28;20035;-91
2023/05/26 01:16:13;;;;;;;12.35;3.22;;;14.00;72.50;;;;;;5118350;28;20027;-91
2023/05/26 01:18:47;;;;;;;14.20;2.63;;;13.90;72.70;;;;;;5117201;28;20027;-90
2023/05/26 01:21:13;;;;;;;13.40;2.58;;;13.90;72.90;;;;;;5116823;28;20028;-91
2023/05/26 01:24:12;;;;;;;13.30;3.03;;;13.80;73.10;;;;;;5117040;28;20089;-91
2023/05/26 01:26:40;;;;;;;18.40;3.10;;;13.80;73.10;;;;;;5118786;28;20028;-91
2023/05/26 01:29:12;;;;;;;10.02;2.38;;;13.80;73.30;;;;;;5117807;28;20058;-91
2023/05/26 01:31:39;;;;;;;17.13;4.45;;;13.80;73.30;;;;;;5118212;28;20079;-91
2023/05/26 01:34:05;;;;;;;13.50;3.28;;;13.80;73.30;;;;;;5116869;28;20020;-89
2023/05/26 01:36:31;;;;;;;13.18;2.90;;;13.60;73.40;;;;;;5116546;28;20541;-91
2023/05/26 01:38:57;;;;;;;11.98;2.97;;;13.70;73.50;;;;;;5116656;28;20027;-91
2023/05/26 01:41:28;;;;;;;11.57;2.47;;;13.70;73.60;;;;;;5100418;28;20024;-90
2023/05/26 01:44:10;;;;;;;14.70;3.90;;;13.70;73.50;;;;;;5115983;28;20024;-91
2023/05/26 01:46:47;;;;;;;12.65;2.97;;;13.60;73.50;;;;;;5117085;28;20073;-90
2023/05/26 01:49:14;;;;;;;14.52;3.05;;;13.70;73.60;;;;;;5116085;28;20017;-91
2023/05/26 01:51:46;;;;;;;9.43;2.88;;;13.60;73.70;;;;;;5115654;28;20494;-91
2023/05/26 01:54:16;;;;;;;10.93;2.70;;;13.50;73.70;;;;;;5116346;28;20061;-90
2023/05/26 01:56:43;;;;;;;18.50;3.08;;;13.50;73.90;;;;;;5118121;28;20024;-88
2023/05/26 01:59:10;;;;;;;10.00;2.38;;;13.40;73.90;;;;;;5100342;28;20031;-90
2023/05/26 02:01:36;;;;;;;11.65;2.65;;;13.40;74.30;;;;;;5100394;28;20452;-90
2023/05/26 02:04:01;;;;;;;13.90;3.30;;;13.30;74.40;;;;;;5118457;28;20047;-90
2023/05/26 02:06:27;;;;;;;16.92;3.22;;;13.30;74.50;;;;;;5084367;28;20023;-91
2023/05/26 02:08:53;;;;;;;18.60;3.22;;;13.30;74.40;;;;;;5085459;28;20023;-90
2023/05/26 02:11:18;;;;;;;13.90;3.05;;;13.30;74.60;;;;;;5084711;28;20034;-91
2023/05/26 02:13:45;;;;;;;12.98;2.78;;;13.20;74.60;;;;;;5101014;28;20310;-90
2023/05/26 02:16:13;;;;;;;16.95;2.67;;;13.20;74.80;;;;;;5118729;28;20027;-91
2023/05/26 02:18:40;;;;;;;12.77;3.10;;;13.30;74.90;;;;;;5102037;28;20065;-91
2023/05/26 02:21:05;;;;;;;9.48;2.95;;;13.20;74.70;;;;;;5119070;28;20019;-90
2023/05/26 02:23:31;;;;;;;9.52;2.58;;;13.10;74.90;;;;;;5099774;28;20023;-90
2023/05/26 02:25:57;;;;;;;15.75;2.78;;;13.10;75.00;;;;;;5083787;28;20037;-91
2023/05/26 02:28:22;;;;;;;16.90;3.50;;;13.00;75.20;;;;;;5099208;28;20034;-91
2023/05/26 02:30:48;;;;;;;15.02;3.08;;;13.00;75.40;;;;;;5083401;28;20061;-90
2023/05/26 02:33:14;;;;;;;10.38;2.78;;;13.00;75.60;;;;;;5101533;28;20024;-89
2023/05/26 02:35:39;;;;;;;15.27;3.25;;;13.00;75.40;;;;;;5084123;28;20093;-91
2023/05/26 02:38:05;;;;;;;12.73;3.05;;;13.00;75.50;;;;;;5100267;28;20056;-90
2023/05/26 02:40:31;;;;;;;13.85;2.72;;;13.00;75.40;;;;;;5081858;28;20030;-90
2023/05/26 02:42:56;;;;;;;16.15;2.92;;;13.00;75.40;;;;;;5082459;28;20016;-91
2023/05/26 02:45:22;;;;;;;12.95;3.38;;;13.00;75.50;;;;;;5084901;28;20040;-91
2023/05/26 02:47:47;;;;;;;12.85;2.97;;;13.00;76.40;;;;;;5083813;28;20024;-91
2023/05/26 02:50:13;;;;;;;13.85;2.50;;;13.00;76.40;;;;;;5083629;28;20024;-91
2023/05/26 02:52:39;;;;;;;12.75;3.13;;;12.90;75.60;;;;;;5083862;28;20492;-92
2023/05/26 02:55:08;;;;;;;10.93;2.60;;;13.00;75.70;;;;;;5083939;28;20477;-89
2023/05/26 02:57:33;;;;;;;14.90;2.92;;;12.90;75.60;;;;;;5085420;28;20051;-88
2023/05/26 02:59:59;;;;;;;11.88;2.72;;;12.90;75.70;;;;;;5085376;28;20022;-90
2023/05/26 03:02:25;;;;;;;13.63;3.72;;;12.90;75.70;;;;;;5116546;28;20047;-90
2023/05/26 03:04:52;;;;;;;19.55;3.40;;;12.80;75.50;;;;;;5082546;28;20619;-91
2023/05/26 03:07:17;;;;;;;10.52;2.40;;;12.70;75.80;;;;;;5083360;28;20044;-91
2023/05/26 03:09:43;;;;;;;11.23;2.60;;;12.70;76.00;;;;;;5115991;28;20108;-91
2023/05/26 03:12:12;;;;;;;14.50;3.20;;;12.70;76.10;;;;;;5083119;28;20481;-91
2023/05/26 03:14:37;;;;;;;13.05;2.85;;;12.70;76.10;;;;;;5117543;28;20030;-86
2023/05/26 03:17:03;;;;;;;14.23;3.28;;;12.70;76.20;;;;;;5083354;28;20122;-90
2023/05/26 03:19:29;;;;;;;15.38;2.88;;;12.70;76.40;;;;;;5101598;28;20027;-92
2023/05/26 03:21:55;;;;;;;14.82;3.58;;;12.60;76.40;;;;;;5084136;28;20019;-88
2023/05/26 03:24:21;;;;;;;11.85;2.95;;;12.60;76.50;;;;;;5099424;28;20507;-91
2023/05/26 03:26:46;;;;;;;13.60;2.35;;;12.50;76.40;;;;;;5117959;28;20035;-92
2023/05/26 03:29:12;;;;;;;9.00;2.70;;;12.50;76.70;;;;;;5117333;28;20028;-91
2023/05/26 03:31:38;;;;;;;16.88;2.67;;;12.50;76.70;;;;;;5102099;28;20062;-91
2023/05/26 03:34:03;;;;;;;13.45;3.35;;;12.60;77.50;;;;;;5102350;28;20061;-91
2023/05/26 03:36:29;;;;;;;11.98;3.20;;;12.60;76.80;;;;;;5088255;28;20057;-91
2023/05/26 03:38:58;;;;;;;9.82;2.47;;;12.60;76.70;;;;;;5104449;28;20020;-91
2023/05/26 03:41:23;;;;;;;11.93;2.80;;;12.60;76.70;;;;;;5104949;28;20435;-92
2023/05/26 03:43:52;;;;;;;11.15;2.88;;;12.60;76.70;;;;;;5088265;28;20012;-90
2023/05/26 03:46:18;;;;;;;13.10;2.53;;;12.60;76.70;;;;;;5088703;28;20039;-91
2023/05/26 03:48:44;;;;;;;12.00;2.47;;;12.60;76.60;;;;;;5122283;28;20046;-92
2023/05/26 03:51:12;;;;;;;15.65;3.55;;;12.50;76.70;;;;;;5107430;28;20126;-92
2023/05/26 03:53:38;;;;;;;15.23;2.85;;;12.50;77.60;;;;;;5089230;28;20078;-92
2023/05/26 03:56:04;;;;;;;12.80;3.45;;;12.50;76.90;;;;;;5090436;28;20032;-92
2023/05/26 03:58:30;;;;;;;12.48;3.17;;;12.50;77.00;;;;;;5122231;28;20471;-91
2023/05/26 04:00:56;;;;;;;14.65;2.70;;;12.40;76.90;;;;;;5106108;28;20020;-92
2023/05/26 04:03:22;;;;;;;15.35;2.92;;;12.40;77.30;;;;;;5124231;28;20438;-90
2023/05/26 04:05:48;;;;;;;12.52;3.35;;;12.40;77.50;;;;;;5106908;28;20023;-90
2023/05/26 04:08:14;;;;;;;12.40;2.60;;;12.30;77.50;;;;;;5088627;28;20110;-91
2023/05/26 04:10:40;;;;;;;10.43;2.90;;;12.30;77.70;;;;;;5123046;28;20027;-92
2023/05/26 04:13:05;;;;;;;15.60;3.10;;;12.30;77.90;;;;;;5136680;27;20023;-90
2023/05/26 04:15:32;;;;;;;14.27;2.85;;;12.30;78.00;;;;;;5120365;27;20457;-90
2023/05/26 04:17:58;;;;;;;14.23;2.80;;;12.40;78.10;;;;;;5109827;27;20027;-88
2023/05/26 04:20:23;;;;;;;16.35;2.92;;;12.40;77.90;;;;;;5104880;27;20027;-89
2023/05/26 04:22:49;;;;;;;12.38;3.15;;;12.50;77.90;;;;;;5124471;27;20388;-90
2023/05/26 04:25:14;;;;;;;17.88;3.40;;;12.50;77.80;;;;;;5107675;27;20027;-90
2023/05/26 04:27:42;;;;;;;16.00;3.35;;;12.50;77.70;;;;;;5125539;27;20027;-90
2023/05/26 04:30:09;;;;;;;10.93;3.08;;;12.50;77.60;;;;;;5126603;27;20369;-88
2023/05/26 04:32:35;;;;;;;8.05;2.85;;;12.40;77.70;;;;;;5142246;27;20023;-90
2023/05/26 04:35:01;;;;;;;13.63;3.42;;;12.40;77.80;;;;;;5141226;27;20074;-90
2023/05/26 04:37:27;;;;;;;16.27;3.35;;;12.40;77.80;;;;;;5121971;27;20031;-92
2023/05/26 04:39:53;;;;;;;11.65;2.47;;;12.40;77.90;;;;;;5126816;27;20027;-91
2023/05/26 04:42:19;;;;;;;14.60;3.22;;;12.40;77.90;;;;;;5126090;27;20026;-88
2023/05/26 04:44:45;;;;;;;13.13;2.92;;;12.40;77.90;;;;;;5125991;27;20031;-92
2023/05/26 04:47:11;;;;;;;17.83;3.88;;;12.50;77.80;;;;;;5103542;28;20074;-92
2023/05/26 04:49:37;;;;;;;15.50;2.95;;;12.50;78.00;;;;;;5101801;28;20024;-92
2023/05/26 04:52:03;;;;;;;14.00;3.15;;;12.40;78.00;;;;;;5127398;27;20381;-92
2023/05/26 04:54:29;;;;;;;12.82;3.08;;;12.50;78.20;;;;;;5127445;27;20475;-90
2023/05/26 04:56:55;;;;;;;16.08;3.38;;;12.40;78.00;;;;;;5127783;27;20051;-92
2023/05/26 04:59:21;;;;;;;17.02;3.72;;;12.40;78.00;;;;;;5143470;27;20038;-92
2023/05/26 05:01:50;;;;;;;12.98;3.30;;;12.50;78.20;;;;;;5142635;27;20016;-92
2023/05/26 05:04:16;;;;;;;11.80;2.55;;;12.50;78.20;;;;;;5123702;27;20034;-90
2023/05/26 05:06:42;;;;;;;15.95;3.58;;;12.50;78.20;;;;;;5142451;27;20019;-92
2023/05/26 05:09:08;;;;;;;10.52;3.60;;;12.50;78.30;;;;;;5106529;27;20485;-90
2023/05/26 05:11:34;;;;;;;16.35;3.22;;;12.40;78.30;;;;;;5107010;27;20047;-90
2023/05/26 05:14:00;;;;;;;15.40;3.10;;;12.50;78.60;;;;;;5139982;27;20011;-91
2023/05/26 05:16:25;;;;;;;12.90;3.03;;;12.40;78.70;;;;;;5105164;27;20027;-91
2023/05/26 05:18:51;;;;;;;16.20;3.20;;;12.40;78.70;;;;;;5104301;28;20035;-91
2023/05/26 05:21:17;;;;;;;15.18;2.92;;;12.40;78.60;;;;;;5118111;28;20031;-95
2023/05/26 05:23:42;;;;;;;16.25;3.25;;;12.40;78.70;;;;;;5080371;28;20030;-85
2023/05/26 05:26:08;;;;;;;14.65;3.28;;;12.40;79.20;;;;;;5115334;28;20028;-83
2023/05/26 05:28:34;;;;;;;14.05;3.55;;;12.40;79.30;;;;;;5078859;28;20089;-87
2023/05/26 05:31:00;;;;;;;17.13;4.15;;;12.30;79.80;;;;;;5113755;28;20510;-86
2023/05/26 05:33:29;;;;;;;20.88;4.10;;;12.30;82.50;;;;;;5080081;28;20078;-86
2023/05/26 05:35:54;;;;;;;11.13;3.15;;;12.40;80.80;;;;;;5113651;28;20325;-86
2023/05/26 05:38:20;;;;;;;13.23;3.47;;;12.50;81.70;;;;;;5096421;28;20111;-81
2023/05/26 05:40:46;;;;;;;15.18;2.95;;;12.50;81.00;;;;;;5113286;28;20118;-82
2023/05/26 05:43:11;;;;;;;16.50;4.63;;;12.50;80.90;;;;;;5096333;28;20030;-83
2023/05/26 05:45:37;;;;;;;12.88;2.85;;;12.50;81.30;;;;;;5113050;28;20527;-81
2023/05/26 05:48:03;;;;;;;13.82;3.72;;;12.60;82.50;;;;;;5096225;28;20051;-81
2023/05/26 05:50:28;;;;;;;14.93;3.03;;;12.60;81.40;;;;;;5114346;28;20384;-82
2023/05/26 05:52:54;;;;;;;12.85;2.63;;;12.70;81.00;;;;;;5114110;28;20031;-81
2023/05/26 05:55:20;;;;;;;14.95;3.35;;;12.70;81.20;;;;;;5096139;28;20039;-81
2023/05/26 05:57:45;;;;;;;11.02;2.60;;;12.70;80.70;;;;;;5111607;28;20506;-80
2023/05/26 06:00:12;;;;;;;13.70;3.17;;;12.80;80.90;;;;;;5113968;28;20081;-80
2023/05/26 06:02:37;;;;;;;13.80;2.90;;;12.80;80.80;;;;;;5114865;28;20023;-75
2023/05/26 06:05:03;;;;;;;15.32;3.30;;;12.80;80.60;;;;;;5113458;28;20123;-88
2023/05/26 06:07:30;;;;;;;17.75;2.83;;;12.80;80.20;;;;;;5113857;28;20055;-90
2023/05/26 06:09:57;;;;;;;14.88;3.10;;;12.80;80.40;;;;;;5096718;28;20042;-89
2023/05/26 06:12:23;;;;;;;17.80;3.40;;;12.80;80.00;;;;;;5113675;28;20159;-89
2023/05/26 06:14:48;;;;;;;13.02;2.97;;;12.80;80.20;;;;;;5096796;28;20030;-90
2023/05/26 06:17:14;;;;;;;14.90;3.65;;;12.90;80.10;;;;;;5079865;28;20032;-90
2023/05/26 06:19:40;;;;;;;17.00;3.30;;;13.00;81.10;;;;;;5113500;28;20024;-90
2023/05/26 06:22:05;;;;;;;17.67;3.40;;;13.00;80.30;;;;;;5079488;28;20098;-89
2023/05/26 06:24:31;;;;;;;14.07;3.17;;;13.00;79.90;;;;;;5079634;28;20015;-88
2023/05/26 06:26:56;;;;;;;16.23;3.35;;;13.00;80.00;;;;;;5079722;28;20165;-90
2023/05/26 06:29:22;;;;;;;15.80;3.65;;;13.00;79.50;;;;;;5079493;28;20028;-90
2023/05/26 06:31:48;;;;;;;16.33;2.88;;;12.90;79.80;;;;;;5096453;28;20047;-90
2023/05/26 06:34:13;;;;;;;14.73;3.22;;;12.90;79.10;;;;;;5096230;28;20099;-90
2023/05/26 06:36:39;;;;;;;13.60;2.80;;;12.90;79.00;;;;;;5114275;28;20100;-90
2023/05/26 06:39:05;;;;;;;18.40;3.53;;;12.90;79.10;;;;;;5096393;28;20038;-91
2023/05/26 06:41:30;;;;;;;14.38;2.80;;;12.90;79.00;;;;;;5079468;28;20052;-91
2023/05/26 06:43:56;;;;;;;14.45;2.95;;;13.00;79.10;;;;;;5096217;28;20030;-91
2023/05/26 06:46:22;;;;;;;14.63;3.28;;;13.00;79.50;;;;;;5095985;28;20057;-91
2023/05/26 06:48:47;;;;;;;15.32;3.38;;;13.10;79.10;;;;;;5096159;28;20030;-91
2023/05/26 06:51:13;;;;;;;12.23;2.92;;;13.20;79.00;;;;;;5079083;28;20024;-90
2023/05/26 06:53:39;;;;;;;15.32;4.05;;;13.20;78.40;;;;;;5112927;28;20031;-89
2023/05/26 06:56:05;;;;;;;12.50;2.85;;;13.30;78.70;;;;;;5096005;28;20028;-91
2023/05/26 06:58:31;;;;;;;13.75;3.80;;;13.40;78.70;;;;;;5079226;28;20468;-91
2023/05/26 07:01:05;;;;;;;17.98;3.13;;;13.40;78.90;;;;;;5095885;28;20034;-92
2023/05/26 07:03:31;;;;;;;12.38;2.97;;;13.40;78.20;;;;;;5112907;28;20513;-91
2023/05/26 07:05:57;;;;;;;14.95;3.05;;;13.40;77.80;;;;;;5078991;28;20084;-90
2023/05/26 07:08:24;;;;;;;12.45;3.28;;;13.40;77.90;;;;;;5095507;28;20028;-91
2023/05/26 07:10:50;;;;;;;13.60;3.03;;;13.50;78.10;;;;;;5112727;28;20086;-90
2023/05/26 07:13:16;;;;;;;13.57;2.85;;;13.40;77.80;;;;;;5095770;28;20479;-91
2023/05/26 07:15:42;;;;;;;15.80;3.17;;;13.50;78.10;;;;;;5079057;28;20028;-91
2023/05/26 07:18:08;;;;;;;13.48;3.20;;;13.50;77.70;;;;;;5112567;28;20028;-91
2023/05/26 07:20:34;;;;;;;12.90;3.53;;;13.50;77.60;;;;;;5095861;28;20015;-91
2023/05/26 07:23:00;;;;;;;12.80;2.70;;;13.60;77.70;;;;;;5112608;28;20031;-90
2023/05/26 07:25:25;;;;;;;12.70;2.78;;;13.60;77.30;;;;;;5112899;28;20028;-89
2023/05/26 07:27:51;;;;;;;12.93;3.55;;;13.70;77.30;;;;;;5095694;28;20035;-90
2023/05/26 07:30:17;;;;;;;14.65;3.03;;;13.70;77.30;;;;;;5078706;28;20027;-90
2023/05/26 07:32:43;;;;;;;13.18;3.00;;;13.70;77.20;;;;;;5113507;28;20020;-91
2023/05/26 07:35:09;;;;;;;13.50;3.47;;;13.80;77.00;;;;;;5078911;28;20032;-92
2023/05/26 07:37:35;;;;;;;16.20;2.92;;;13.90;77.30;;;;;;5095752;28;20031;-92
2023/05/26 07:40:02;;;;;;;16.92;3.85;;;14.00;78.10;;;;;;5095779;28;20054;-92
2023/05/26 07:42:28;;;;;;;11.23;3.08;;;14.00;76.60;;;;;;5095821;28;20742;-92
2023/05/26 07:44:55;;;;;;;16.73;3.42;;;14.00;76.40;;;;;;5078432;28;20024;-92
2023/05/26 07:47:21;;;;;;;11.25;3.60;;;14.00;76.10;;;;;;5112271;28;20040;-91
2023/05/26 07:49:46;;;;;;;11.82;2.72;;;14.10;76.70;;;;;;5095660;28;20023;-91
2023/05/26 07:52:12;;;;;;;16.92;3.60;;;14.20;76.30;;;;;;5095452;28;20032;-92
2023/05/26 07:54:38;;;;;;;14.40;3.50;;;14.30;76.00;;;;;;5095511;28;20168;-91
2023/05/26 07:57:03;;;;;;;16.00;3.17;;;14.30;75.90;;;;;;5095143;28;20042;-93
2023/05/26 07:59:29;;;;;;;16.17;3.13;;;14.40;75.10;;;;;;5112389;28;20031;-90
2023/05/26 08:01:55;;;;;;;15.10;3.70;;;14.40;74.90;;;;;;5078805;28;20028;-91
2023/05/26 08:04:20;;;;;;;12.48;3.50;;;14.40;75.20;;;;;;5095495;28;20394;-92
2023/05/26 08:06:46;;;;;;;14.77;3.55;;;14.50;75.20;;;;;;5078872;28;20019;-92
2023/05/26 08:09:12;;;;;;;12.02;3.35;;;14.60;74.80;;;;;;5095270;28;20507;-89
2023/05/26 08:11:37;;;;;;;14.40;3.13;;;14.60;74.50;;;;;;5078394;28;20030;-92
2023/05/26 08:14:03;;;;;;;14.50;3.40;;;14.70;74.70;;;;;;5111939;28;20023;-92
2023/05/26 08:16:29;;;;;;;11.35;3.40;;;14.70;74.90;;;;;;5078440;28;20024;-93
2023/05/26 08:18:54;;;;;;;14.55;3.22;;;14.80;74.60;;;;;;5095045;28;20032;-91
2023/05/26 08:21:20;;;;;;;14.60;3.25;;;14.90;74.10;;;;;;5114244;28;20023;-91
2023/05/26 08:23:46;;;;;;;11.77;3.30;;;15.00;73.40;;;;;;5116961;28;20023;-92
2023/05/26 08:26:11;;;;;;;18.73;3.80;;;15.00;73.80;;;;;;5081877;28;20024;-92
2023/05/26 08:28:37;;;;;;;12.93;3.40;;;15.00;73.40;;;;;;5099066;28;20556;-93
2023/05/26 08:31:03;;;;;;;9.75;3.33;;;15.00;72.40;;;;;;5099110;28;20028;-93
2023/05/26 08:33:28;;;;;;;12.38;3.85;;;15.10;72.90;;;;;;5115976;28;20038;-92
2023/05/26 08:35:54;;;;;;;14.07;3.13;;;15.20;73.20;;;;;;5098606;28;20123;-92
2023/05/26 08:38:20;;;;;;;13.55;3.50;;;15.20;72.50;;;;;;5109979;27;20117;-92
2023/05/26 08:40:47;;;;;;;14.48;3.75;;;15.20;72.20;;;;;;5137187;27;20030;-91
2023/05/26 08:43:14;;;;;;;14.35;3.00;;;15.30;72.30;;;;;;5136169;27;20019;-93
2023/05/26 08:45:41;;;;;;;10.80;3.15;;;15.40;72.30;;;;;;5119572;27;20050;-93
2023/05/26 08:48:10;;;;;;;15.88;3.70;;;15.50;72.50;;;;;;5135631;27;20075;-88
2023/05/26 08:50:36;;;;;;;15.60;3.78;;;15.50;72.10;;;;;;5118548;27;20034;-86
2023/05/26 08:53:03;;;;;;;12.57;3.53;;;15.60;71.20;;;;;;5135362;27;20097;-87
2023/05/26 08:55:31;;;;;;;13.73;3.35;;;15.60;71.10;;;;;;5118120;27;20024;-87
2023/05/26 08:57:59;;;;;;;15.18;3.45;;;15.60;70.60;;;;;;5118221;27;20059;-88
2023/05/26 09:00:29;;;;;;;18.75;3.85;;;15.60;70.30;;;;;;5136491;27;20043;-86
2023/05/26 09:03:01;;;;;;;12.88;3.72;;;15.70;70.80;;;;;;5132318;27;20031;-87
2023/05/26 09:05:29;;;;;;;16.17;4.40;;;15.70;70.50;;;;;;5136020;27;20195;-87
2023/05/26 09:07:54;;;;;;;14.73;3.35;;;15.70;70.70;;;;;;5132129;27;20023;-87
2023/05/26 09:10:30;;;;;;;8.77;3.13;;;15.80;70.90;;;;;;5117524;27;20027;-88
2023/05/26 09:13:03;;;;;;;13.57;3.72;;;15.90;70.30;;;;;;5113057;27;20031;-88
2023/05/26 09:15:29;;;;;;;10.68;3.50;;;15.90;70.30;;;;;;5135017;27;20480;-88
2023/05/26 09:18:00;;;;;;;12.88;3.13;;;16.00;69.30;;;;;;5134955;27;20026;-87
2023/05/26 09:20:28;;;;;;;14.30;3.40;;;16.00;68.90;;;;;;5118677;27;20023;-88
2023/05/26 09:22:58;;;;;;;12.30;4.13;;;16.10;69.50;;;;;;5116817;27;20030;-87
2023/05/26 09:25:45;;;;;;;10.73;3.08;;;16.20;68.20;;;;;;5117130;27;20030;-89
2023/05/26 09:28:13;;;;;;;12.88;3.47;;;16.30;69.90;;;;;;5134705;27;20472;-88
2023/05/26 09:30:40;;;;;;;14.23;3.72;;;16.30;69.20;;;;;;5134827;27;20023;-88
2023/05/26 09:33:10;;;;;;;12.45;3.00;;;16.40;69.40;;;;;;5135728;27;20050;-88
2023/05/26 09:35:41;;;;;;;15.00;4.28;;;16.50;69.10;;;;;;5134562;27;20475;-88
2023/05/26 09:38:08;;;;;;;14.82;3.95;;;16.60;68.20;;;;;;5135245;27;20520;-89
2023/05/26 09:40:39;;;;;;;12.25;3.97;;;16.60;67.90;;;;;;5134771;27;20052;-87
2023/05/26 09:43:05;;;;;;;12.00;3.85;;;16.70;67.10;;;;;;5134791;27;20023;-89
2023/05/26 09:45:35;;;;;;;12.20;3.60;;;16.80;67.20;;;;;;5116857;27;20070;-88
2023/05/26 09:48:02;;;;;;;12.93;3.53;;;16.80;66.40;;;;;;5117414;27;20476;-88
2023/05/26 09:50:32;;;;;;;10.77;3.35;;;16.90;66.80;;;;;;5134364;27;20019;-88
2023/05/26 09:53:00;;;;;;;14.40;3.30;;;17.00;66.40;;;;;;5135594;27;20034;-89
2023/05/26 09:55:25;;;;;;;12.10;3.60;;;16.90;67.10;;;;;;5117481;27;20028;-88
2023/05/26 09:57:52;;;;;;;13.88;3.67;;;17.10;66.20;;;;;;5117223;27;20373;-88
2023/05/26 10:00:20;;;;;;;13.73;3.20;;;17.10;66.10;;;;;;5100391;27;20113;-88
2023/05/26 10:02:47;;;;;;;14.18;3.65;;;17.10;65.40;;;;;;5134274;27;20102;-88
2023/05/26 10:05:14;;;;;;;8.25;3.10;;;17.30;66.00;;;;;;5116907;27;20069;-89
2023/05/26 10:07:45;;;;;;;10.50;3.25;;;17.40;65.30;;;;;;5117048;27;20029;-87
2023/05/26 10:10:15;;;;;;;17.15;3.67;;;17.40;64.50;;;;;;5135260;27;20016;-87
2023/05/26 10:12:42;;;;;;;12.90;3.25;;;17.40;63.90;;;;;;5134194;27;20031;-89
2023/05/26 10:15:09;;;;;;;15.00;3.67;;;17.40;64.40;;;;;;5134078;27;20027;-89
2023/05/26 10:17:35;;;;;;;8.45;2.58;;;17.50;64.20;;;;;;5116834;27;20031;-88
2023/05/26 10:20:03;;;;;;;9.73;2.70;;;17.50;63.40;;;;;;5133844;27;20365;-89
2023/05/26 10:22:58;;;;;;;9.50;3.17;;;17.60;62.60;;;;;;5116986;27;20031;-89
2023/05/26 10:25:38;;;;;;;8.90;2.60;;;17.70;63.10;;;;;;5133605;27;20079;-89
2023/05/26 10:28:18;;;;;;;10.38;2.70;;;17.70;60.70;;;;;;5133792;27;20031;-90
2023/05/26 10:30:44;;;;;;;10.38;2.80;;;17.70;60.50;;;;;;5133752;27;20480;-88
2023/05/26 10:33:10;;;;;;;10.95;3.25;;;17.70;60.20;;;;;;5134719;27;20027;-88
2023/05/26 10:35:37;;;;;;;11.43;3.00;;;17.80;61.60;;;;;;5133484;27;20019;-89
2023/05/26 10:38:03;;;;;;;13.32;2.90;;;17.90;60.10;;;;;;5116331;27;20023;-88
2023/05/26 10:40:39;;;;;;;11.35;2.95;;;17.90;60.00;;;;;;5133535;27;20065;-88
2023/05/26 10:43:17;;;;;;;13.40;3.40;;;18.00;61.10;;;;;;5134027;27;20026;-89
2023/05/26 10:45:57;;;;;;;11.30;3.42;;;18.10;60.80;;;;;;5133253;27;20043;-89
2023/05/26 10:48:35;;;;;;;7.65;2.47;;;18.10;60.60;;;;;;5133463;27;20080;-89
2023/05/26 10:51:05;;;;;;;10.50;2.58;;;18.20;58.80;;;;;;5133464;27;20038;-89
2023/05/26 10:53:39;;;;;;;11.82;2.55;;;18.30;60.20;;;;;;5133397;27;20038;-88
2023/05/26 10:56:08;;;;;;;9.75;2.30;;;18.40;59.20;;;;;;5133391;27;20445;-89
2023/05/26 10:58:35;;;;;;;9.02;2.78;;;18.40;57.90;;;;;;5116517;27;20479;-88
2023/05/26 11:01:02;;;;;;;8.63;2.80;;;18.50;57.30;;;;;;5133209;27;20030;-90
2023/05/26 11:03:31;;;;;;;11.32;2.90;;;18.50;56.30;;;;;;5133268;27;20105;-88
2023/05/26 11:05:57;;;;;;;8.38;2.80;;;18.50;56.00;;;;;;5134432;27;20015;-89
2023/05/26 11:08:22;;;;;;;8.77;2.85;;;18.60;56.70;;;;;;5099264;28;20030;-89
2023/05/26 11:11:00;;;;;;;13.45;2.80;;;18.60;55.20;;;;;;5116128;28;20031;-89
2023/05/26 11:13:43;;;;;;;10.95;2.53;;;18.70;56.20;;;;;;5116096;27;20027;-89
2023/05/26 11:16:22;;;;;;;10.02;2.60;;;18.70;56.70;;;;;;5133120;27;20028;-88
2023/05/26 11:18:53;;;;;;;8.93;2.60;;;18.80;56.10;;;;;;5133087;27;20022;-88
2023/05/26 11:21:25;;;;;;;11.10;3.33;;;18.80;54.80;;;;;;5134306;27;20483;-88
2023/05/26 11:23:53;;;;;;;7.38;2.50;;;18.80;54.20;;;;;;5133091;28;20025;-89
2023/05/26 11:26:19;;;;;;;14.38;4.68;;;18.90;55.50;;;;;;5132982;27;20020;-88
2023/05/26 11:28:46;;;;;;;12.55;3.05;;;18.90;53.50;;;;;;5115757;28;20476;-89
2023/05/26 11:31:13;;;;;;;9.77;2.60;;;19.00;53.60;;;;;;5132990;27;20054;-89
2023/05/26 11:33:40;;;;;;;8.07;2.33;;;19.00;53.50;;;;;;5099222;28;20480;-87
2023/05/26 11:36:16;;;;;;;9.15;2.80;;;19.10;53.80;;;;;;5115656;28;20376;-89
2023/05/26 11:38:43;;;;;;;10.27;2.90;;;19.20;54.10;;;;;;5132766;27;20027;-89
2023/05/26 11:41:11;;;;;;;6.90;2.85;;;19.30;52.70;;;;;;5132809;27;20022;-87
2023/05/26 11:43:38;;;;;;;13.55;2.75;;;19.30;54.30;;;;;;5132819;27;20076;-88
2023/05/26 11:46:07;;;;;;;10.00;2.90;;;19.30;53.60;;;;;;5098746;28;20126;-89
2023/05/26 11:48:40;;;;;;;12.00;2.90;;;19.40;53.20;;;;;;5133996;27;20030;-89
2023/05/26 11:51:11;;;;;;;15.23;3.40;;;19.40;52.70;;;;;;5132802;27;20012;-89
2023/05/26 11:53:38;;;;;;;10.93;2.70;;;19.50;53.00;;;;;;5132881;27;20027;-89
2023/05/26 11:56:09;;;;;;;8.50;2.70;;;19.50;53.30;;;;;;5137001;27;20083;-90
2023/05/26 11:58:55;;;;;;;8.67;3.00;;;19.60;50.00;;;;;;5137863;27;20044;-89
2023/05/26 12:01:21;;;;;;;9.25;2.72;;;19.60;47.70;;;;;;5119867;27;20067;-89
2023/05/26 12:03:49;;;;;;;11.00;3.00;;;19.60;48.30;;;;;;5136675;27;20022;-88
2023/05/26 12:06:17;;;;;;;7.85;2.80;;;19.60;49.10;;;;;;5136642;27;20032;-88
2023/05/26 12:08:49;;;;;;;9.05;3.47;;;19.60;50.90;;;;;;5136626;27;20031;-89
2023/05/26 12:11:18;;;;;;;7.63;2.53;;;19.70;51.30;;;;;;5136447;27;20027;-89
2023/05/26 12:13:44;;;;;;;7.30;2.40;;;19.90;51.20;;;;;;5137774;27;20272;-89
2023/05/26 12:16:36;;;;;;;10.30;3.13;;;19.90;51.10;;;;;;5102234;27;20023;-90
2023/05/26 12:19:13;;;;;;;12.45;3.03;;;20.00;51.30;;;;;;5119319;27;20051;-90
2023/05/26 12:21:47;;;;;;;10.45;2.85;;;20.00;50.20;;;;;;5119736;27;20023;-89
2023/05/26 12:24:13;;;;;;;9.38;2.60;;;20.00;50.70;;;;;;5136168;27;20023;-87
2023/05/26 12:26:40;;;;;;;10.32;2.60;;;20.10;50.50;;;;;;5136180;27;20508;-90
2023/05/26 12:29:12;;;;;;;9.27;2.22;;;20.20;50.50;;;;;;5136285;27;20030;-89
2023/05/26 12:32:05;;;;;;;6.88;2.40;;;20.20;49.00;;;;;;5136202;27;20034;-89
2023/05/26 12:34:31;;;;;;;12.27;4.10;;;20.30;49.20;;;;;;5135615;27;20108;-88
2023/05/26 12:36:57;;;;;;;9.98;3.03;;;20.40;50.00;;;;;;5136337;27;20028;-89
2023/05/26 12:39:23;;;;;;;10.48;2.88;;;20.40;49.70;;;;;;5118876;27;20122;-89